Time;durP1;ratioP1;P1;durP2;ratioP2;P2;SDS_P1;SDS_P2;PMS_P1;PMS_P2;Temp;Humidity;BMP_temperature;BMP_pressure;BME280_temperature;BME280_humidity;BME280_pressure;Samples;Min_cycle;Max_cycle;Signal;HPM_P1;HPM_P2
2022/01/09 00:00:53;;;;;;;35.88;18.17;;;;;;;-2.93;100.00;99635.53;5074171;28;20409;-72
2022/01/09 00:03:22;;;;;;;37.75;18.30;;;;;;;-2.96;100.00;99625.16;5073914;28;20036;-72
2022/01/09 00:05:50;;;;;;;39.05;19.75;;;;;;;-2.95;100.00;99619.06;5074553;28;20068;-72
2022/01/09 00:08:20;;;;;;;41.22;20.15;;;;;;;-2.93;100.00;99612.91;5073692;28;20036;-73
2022/01/09 00:10:50;;;;;;;38.28;18.83;;;;;;;-2.85;100.00;99614.56;5074428;28;20051;-72
2022/01/09 00:13:18;;;;;;;41.78;19.52;;;;;;;-2.81;100.00;99613.59;5074111;28;20432;-73
2022/01/09 00:15:46;;;;;;;40.95;20.30;;;;;;;-2.81;100.00;99611.84;5074169;28;20045;-72
2022/01/09 00:18:15;;;;;;;42.28;20.45;;;;;;;-2.93;100.00;99612.06;5073855;28;20478;-72
2022/01/09 00:20:43;;;;;;;44.90;21.20;;;;;;;-3.00;100.00;99608.66;5074068;28;20090;-73
2022/01/09 00:23:11;;;;;;;40.92;21.05;;;;;;;-3.08;100.00;99600.13;5073006;28;20041;-73
2022/01/09 00:25:41;;;;;;;43.03;20.55;;;;;;;-3.09;100.00;99593.16;5074084;28;20045;-71
2022/01/09 00:28:10;;;;;;;47.15;22.67;;;;;;;-3.10;100.00;99595.78;5073595;28;20048;-76
2022/01/09 00:30:38;;;;;;;46.60;23.42;;;;;;;-3.23;100.00;99589.91;5073602;28;20052;-72
2022/01/09 00:33:06;;;;;;;54.60;24.92;;;;;;;-3.30;100.00;99589.13;5074045;28;20044;-72
2022/01/09 00:35:35;;;;;;;47.30;23.20;;;;;;;-3.31;100.00;99591.75;5073385;28;20067;-71
2022/01/09 00:38:03;;;;;;;50.33;24.60;;;;;;;-3.37;100.00;99587.53;5073841;28;20041;-72
2022/01/09 00:40:32;;;;;;;48.33;24.50;;;;;;;-3.32;100.00;99582.22;5073091;28;20044;-72
2022/01/09 00:43:01;;;;;;;52.35;25.38;;;;;;;-3.35;100.00;99579.66;5073674;28;20041;-72
2022/01/09 00:45:30;;;;;;;51.33;23.85;;;;;;;-3.34;100.00;99581.38;5073010;28;20046;-72
2022/01/09 00:47:58;;;;;;;47.42;23.33;;;;;;;-3.36;100.00;99581.41;5073428;28;20040;-72
2022/01/09 00:50:26;;;;;;;52.30;23.17;;;;;;;-3.31;100.00;99576.13;5073219;28;20048;-71
2022/01/09 00:52:55;;;;;;;45.10;22.92;;;;;;;-3.35;100.00;99570.09;5073622;28;20101;-71
2022/01/09 00:55:23;;;;;;;46.78;22.48;;;;;;;-3.35;100.00;99575.31;5073217;28;20066;-71
2022/01/09 00:57:51;;;;;;;49.67;22.63;;;;;;;-3.32;100.00;99566.56;5073568;28;20048;-71
2022/01/09 01:00:21;;;;;;;52.15;22.92;;;;;;;-3.37;100.00;99566.66;5073256;28;20052;-71
2022/01/09 01:02:49;;;;;;;47.83;23.02;;;;;;;-3.41;100.00;99564.97;5073361;28;20049;-71
2022/01/09 01:05:18;;;;;;;46.55;21.80;;;;;;;-3.48;100.00;99558.97;5072819;28;20040;-70
2022/01/09 01:07:46;;;;;;;46.70;22.65;;;;;;;-3.44;100.00;99556.34;5073588;28;20041;-70
2022/01/09 01:10:14;;;;;;;42.17;21.92;;;;;;;-3.44;100.00;99549.38;5072641;28;20050;-71
2022/01/09 01:12:42;;;;;;;45.50;22.40;;;;;;;-3.36;100.00;99547.50;5073219;28;20052;-72
2022/01/09 01:15:12;;;;;;;46.40;22.05;;;;;;;-3.25;100.00;99549.97;5073264;28;20049;-72
2022/01/09 01:17:42;;;;;;;45.00;21.70;;;;;;;-3.11;100.00;99534.06;5073192;28;20048;-72
2022/01/09 01:20:12;;;;;;;42.28;21.33;;;;;;;-2.99;100.00;99532.13;5073200;28;20482;-72
2022/01/09 01:22:41;;;;;;;40.97;20.77;;;;;;;-2.81;100.00;99528.31;5072859;28;20041;-72
2022/01/09 01:25:10;;;;;;;45.92;21.48;;;;;;;-2.89;100.00;99518.03;5073118;28;20044;-72
2022/01/09 01:27:39;;;;;;;41.58;20.15;;;;;;;-2.87;100.00;99515.41;5073136;28;20134;-72
2022/01/09 01:30:09;;;;;;;43.65;20.88;;;;;;;-2.99;100.00;99510.38;5072769;28;20064;-72
2022/01/09 01:32:37;;;;;;;41.13;20.98;;;;;;;-3.18;100.00;99509.84;5072398;28;20047;-72
2022/01/09 01:35:08;;;;;;;41.67;21.25;;;;;;;-3.26;100.00;99501.28;5071963;28;20040;-72
2022/01/09 01:37:38;;;;;;;40.80;21.13;;;;;;;-3.26;100.00;99491.72;5072751;28;20045;-72
2022/01/09 01:40:10;;;;;;;42.75;21.90;;;;;;;-3.41;100.00;99494.56;5073226;28;20044;-71
2022/01/09 01:42:38;;;;;;;43.80;21.00;;;;;;;-3.41;100.00;99494.56;5072423;28;20041;-71
2022/01/09 01:45:09;;;;;;;38.28;19.20;;;;;;;-3.27;100.00;99483.91;5072668;28;20390;-71
2022/01/09 01:47:38;;;;;;;40.22;20.17;;;;;;;-3.27;100.00;99484.78;5072709;28;20048;-71
2022/01/09 01:50:11;;;;;;;39.78;19.95;;;;;;;-3.21;100.00;99478.59;5072885;28;20068;-71
2022/01/09 01:52:43;;;;;;;;;;;;;;;-3.23;100.00;99478.59;5073157;28;20041;-72
2022/01/09 01:55:13;;;;;;;41.92;19.70;;;;;;;-3.11;100.00;99474.94;5072975;28;19927;-71
2022/01/09 01:57:44;;;;;;;44.55;20.92;;;;;;;-3.04;100.00;99471.34;5072700;28;20051;-71
2022/01/09 02:00:15;;;;;;;44.67;20.65;;;;;;;-3.03;100.00;99485.25;5072457;28;20052;-71
2022/01/09 02:02:43;;;;;;;44.92;20.90;;;;;;;-2.84;100.00;99477.94;5072527;28;20044;-71
2022/01/09 02:05:13;;;;;;;39.95;20.73;;;;;;;-2.68;100.00;99474.16;5072454;28;20047;-71
2022/01/09 02:07:42;;;;;;;45.47;22.27;;;;;;;-2.63;100.00;99467.09;5072846;28;20036;-71
2022/01/09 02:10:10;;;;;;;39.85;21.13;;;;;;;-2.60;100.00;99456.59;5072771;28;20047;-71
2022/01/09 02:12:40;;;;;;;44.97;21.83;;;;;;;-2.59;100.00;99458.31;5072195;28;20052;-71
2022/01/09 02:15:32;;;;;;;40.92;21.17;;;;;;;-2.60;100.00;99459.22;5072267;28;20147;-71
2022/01/09 02:18:01;;;;;;;44.40;22.20;;;;;;;-2.54;100.00;99463.44;5072690;28;20041;-71
2022/01/09 02:20:31;;;;;;;43.22;22.17;;;;;;;-2.54;100.00;99461.69;5072262;28;20044;-71
2022/01/09 02:22:59;;;;;;;47.17;22.17;;;;;;;-2.71;100.00;99455.94;5072530;28;20043;-70
2022/01/09 02:25:28;;;;;;;50.03;23.42;;;;;;;-2.60;100.00;99456.59;5072391;28;20394;-72
2022/01/09 02:27:59;;;;;;;46.25;22.83;;;;;;;-2.69;100.00;99447.19;5072316;28;20481;-72
2022/01/09 02:30:27;;;;;;;48.30;22.73;;;;;;;-2.78;100.00;99449.13;5072172;28;20044;-72
2022/01/09 02:32:55;;;;;;;48.22;23.80;;;;;;;-2.78;100.00;99443.91;5072480;28;20033;-72
2022/01/09 02:35:24;;;;;;;48.65;22.95;;;;;;;-2.91;100.00;99444.13;5072115;28;20094;-72
2022/01/09 02:37:54;;;;;;;47.67;24.92;;;;;;;-3.08;100.00;99435.75;5072415;28;20045;-72
2022/01/09 02:40:23;;;;;;;49.33;23.95;;;;;;;-3.26;100.00;99436.09;5071942;28;20501;-72
2022/01/09 02:42:52;;;;;;;50.60;23.60;;;;;;;-3.27;100.00;99437.84;5072051;28;20075;-72
2022/01/09 02:45:23;;;;;;;52.30;23.52;;;;;;;-3.36;100.00;99438.00;5073051;28;20090;-72
2022/01/09 02:47:53;;;;;;;46.63;23.17;;;;;;;-3.31;100.00;99432.69;5075988;28;20045;-72
2022/01/09 02:50:32;;;;;;;45.65;22.50;;;;;;;-3.34;100.00;99427.53;5075234;28;20041;-71
2022/01/09 02:53:12;;;;;;;44.00;22.00;;;;;;;-3.56;100.00;99425.28;5075840;28;20068;-71
2022/01/09 02:55:41;;;;;;;46.03;22.65;;;;;;;-3.60;100.00;99431.41;5075473;28;20109;-71
2022/01/09 02:58:10;;;;;;;47.10;22.45;;;;;;;-3.66;100.00;99438.50;5075738;28;20037;-71
2022/01/09 03:00:40;;;;;;;46.15;23.15;;;;;;;-3.84;100.00;99421.38;5075298;28;20049;-71
2022/01/09 03:03:09;;;;;;;43.53;21.92;;;;;;;-3.84;100.00;99426.59;5075607;28;20104;-71
2022/01/09 03:05:37;;;;;;;48.72;23.20;;;;;;;-3.93;100.00;99427.59;5075332;28;20043;-71
2022/01/09 03:08:08;;;;;;;45.05;22.17;;;;;;;-3.95;100.00;99425.91;5075597;28;20047;-71
2022/01/09 03:10:36;;;;;;;43.45;22.10;;;;;;;-3.95;100.00;99429.38;5075374;28;20393;-71
2022/01/09 03:13:07;;;;;;;44.20;22.33;;;;;;;-3.83;100.00;99423.97;5075164;28;20055;-71
2022/01/09 03:15:35;;;;;;;45.15;22.00;;;;;;;-3.75;100.00;99416.03;5075187;28;20044;-72
2022/01/09 03:18:04;;;;;;;44.72;21.88;;;;;;;-3.89;100.00;99416.22;5075091;28;20041;-71
2022/01/09 03:20:32;;;;;;;46.72;23.10;;;;;;;-3.84;100.00;99413.56;5074807;28;20063;-71
2022/01/09 03:23:00;;;;;;;45.50;22.45;;;;;;;-3.81;100.00;99408.31;5074968;28;20041;-71
2022/01/09 03:25:30;;;;;;;46.40;22.33;;;;;;;-3.93;100.00;99422.38;5075036;28;20040;-72
2022/01/09 03:27:59;;;;;;;48.10;24.27;;;;;;;-3.94;100.00;99417.19;5075187;28;20078;-71
2022/01/09 03:30:28;;;;;;;51.10;23.58;;;;;;;-3.93;100.00;99417.16;5074843;28;20094;-72
2022/01/09 03:32:57;;;;;;;48.75;24.13;;;;;;;-4.00;100.00;99412.94;5074921;28;20043;-71
2022/01/09 03:35:27;;;;;;;52.35;26.08;;;;;;;-4.10;100.00;99403.53;5074716;28;20040;-72
2022/01/09 03:37:56;;;;;;;52.08;25.83;;;;;;;-4.15;100.00;99408.81;5075050;28;20036;-71
2022/01/09 03:40:26;;;;;;;54.45;26.52;;;;;;;-4.28;100.00;99404.63;5074621;28;20502;-72
2022/01/09 03:42:56;;;;;;;61.78;27.08;;;;;;;-4.37;100.00;99403.03;5074759;28;20041;-71
2022/01/09 03:45:26;;;;;;;55.17;26.50;;;;;;;-4.36;100.00;99398.69;5074443;28;20075;-73
2022/01/09 03:47:55;;;;;;;54.58;26.83;;;;;;;-4.23;100.00;99397.66;5074517;28;20071;-72
2022/01/09 03:50:23;;;;;;;56.15;27.25;;;;;;;-4.11;100.00;99397.47;5074393;28;20047;-74
2022/01/09 03:52:52;;;;;;;57.60;27.95;;;;;;;-4.18;100.00;99385.41;5074401;28;20041;-72
2022/01/09 03:55:22;;;;;;;57.90;27.02;;;;;;;-4.22;100.00;99401.97;5074640;28;20044;-72
2022/01/09 03:57:51;;;;;;;60.88;29.00;;;;;;;-4.40;100.00;99408.28;5074012;28;20123;-72
2022/01/09 04:00:23;;;;;;;59.63;26.77;;;;;;;-4.57;100.00;99410.22;5074634;28;20060;-72
2022/01/09 04:02:53;;;;;;;57.88;28.98;;;;;;;-4.73;100.00;99414.78;5074443;28;20044;-72
2022/01/09 04:05:22;;;;;;;58.50;28.15;;;;;;;-4.79;100.00;99412.25;5074585;28;20055;-73
2022/01/09 04:07:51;;;;;;;55.55;28.08;;;;;;;-4.84;100.00;99414.03;5074426;28;20106;-73
2022/01/09 04:10:32;;;;;;;61.03;29.13;;;;;;;-4.88;100.00;99403.69;5073741;28;20048;-73
2022/01/09 04:13:00;;;;;;;60.70;29.38;;;;;;;-4.98;100.00;99406.38;5074168;28;20058;-73
2022/01/09 04:15:31;;;;;;;59.08;28.83;;;;;;;-4.91;100.00;99402.84;5073915;28;20040;-73
2022/01/09 04:18:00;;;;;;;62.17;29.48;;;;;;;-4.96;100.00;99407.22;5074248;28;20048;-73
2022/01/09 04:20:30;;;;;;;62.75;29.17;;;;;;;-4.93;100.00;99399.38;5073947;28;20040;-74
2022/01/09 04:23:00;;;;;;;67.97;30.02;;;;;;;-4.97;100.00;99399.44;5073869;28;20439;-73
2022/01/09 04:25:28;;;;;;;59.60;28.65;;;;;;;-4.81;100.00;99395.78;5073763;28;20044;-74
2022/01/09 04:27:56;;;;;;;66.72;28.40;;;;;;;-4.48;100.00;99388.44;5073997;28;20048;-73
2022/01/09 04:30:25;;;;;;;56.08;27.25;;;;;;;-4.42;100.00;99372.75;5073866;28;20044;-77
2022/01/09 04:32:57;;;;;;;55.83;27.65;;;;;;;-4.43;100.00;99365.81;5073663;28;20049;-73
2022/01/09 04:35:25;;;;;;;62.00;28.45;;;;;;;-4.41;100.00;99366.66;5073548;28;20048;-76
2022/01/09 04:37:54;;;;;;;59.92;28.75;;;;;;;-4.49;100.00;99378.91;5073544;28;20402;-73
2022/01/09 04:40:22;;;;;;;63.92;28.95;;;;;;;-4.78;100.00;99374.06;5073481;28;20059;-73
2022/01/09 04:42:54;;;;;;;64.90;27.58;;;;;;;-4.95;100.00;99361.25;5073320;28;20048;-73
2022/01/09 04:45:25;;;;;;;58.15;26.92;;;;;;;-4.68;100.00;99355.72;5073796;28;20101;-73
2022/01/09 04:48:00;;;;;;;59.17;26.15;;;;;;;-4.57;100.00;99367.72;5073554;28;20064;-74
2022/01/09 04:50:31;;;;;;;69.32;27.20;;;;;;;-4.85;100.00;99370.69;5072996;28;20060;-74
2022/01/09 04:53:05;;;;;;;57.40;26.58;;;;;;;-4.96;100.00;99367.34;5073776;28;20041;-74
2022/01/09 04:55:34;;;;;;;58.30;26.60;;;;;;;-5.02;100.00;99360.50;5073313;28;20050;-74
2022/01/09 04:58:03;;;;;;;55.60;26.67;;;;;;;-4.89;100.00;99350.78;5073156;28;20371;-73
2022/01/09 05:00:31;;;;;;;64.38;27.17;;;;;;;-5.07;100.00;99367.47;5072828;28;20048;-72
2022/01/09 05:03:01;;;;;;;60.80;26.98;;;;;;;-5.11;100.00;99370.13;5073259;28;20241;-71
2022/01/09 05:05:30;;;;;;;60.47;26.20;;;;;;;-5.17;100.00;99371.06;5072847;28;20391;-71
2022/01/09 05:07:58;;;;;;;51.90;25.15;;;;;;;-5.06;100.00;99364.00;5073336;28;20124;-71
2022/01/09 05:10:27;;;;;;;52.65;24.92;;;;;;;-4.86;100.00;99361.16;5073312;28;20470;-72
2022/01/09 05:12:57;;;;;;;56.25;24.77;;;;;;;-5.02;100.00;99370.91;5073031;28;20070;-72
2022/01/09 05:15:25;;;;;;;58.05;27.02;;;;;;;-5.21;100.00;99367.63;5073341;28;20460;-71
2022/01/09 05:17:59;;;;;;;55.25;26.33;;;;;;;-5.29;100.00;99372.06;5073348;28;20040;-72
2022/01/09 05:20:28;;;;;;;55.72;25.70;;;;;;;-5.24;100.00;99367.66;5073336;28;20056;-72
2022/01/09 05:22:57;;;;;;;56.65;26.23;;;;;;;-5.31;100.00;99378.13;5073445;28;20052;-72
2022/01/09 05:25:25;;;;;;;59.40;26.70;;;;;;;-5.30;100.00;99372.94;5073184;28;20165;-72
2022/01/09 05:27:55;;;;;;;54.25;26.10;;;;;;;-5.23;100.00;99369.38;5072683;28;20047;-72
2022/01/09 05:30:23;;;;;;;55.70;25.35;;;;;;;-4.99;100.00;99375.19;5073181;28;20106;-72
2022/01/09 05:32:52;;;;;;;49.20;25.63;;;;;;;-5.06;100.00;99370.94;5072502;28;20106;-72
2022/01/09 05:35:20;;;;;;;59.95;27.27;;;;;;;-5.14;100.00;99372.75;5072847;28;20048;-72
2022/01/09 05:37:50;;;;;;;59.00;26.40;;;;;;;-5.22;100.00;99368.50;5072705;28;20555;-71
2022/01/09 05:40:19;;;;;;;60.03;27.52;;;;;;;-5.12;100.00;99373.59;5072724;28;20090;-71
2022/01/09 05:42:47;;;;;;;58.00;26.33;;;;;;;-5.12;100.00;99368.38;5072788;28;20124;-71
2022/01/09 05:45:17;;;;;;;60.17;26.83;;;;;;;-5.08;100.00;99360.56;5073006;28;20045;-71
2022/01/09 05:47:46;;;;;;;60.95;27.80;;;;;;;-5.17;100.00;99365.84;5072814;28;20045;-71
2022/01/09 05:50:15;;;;;;;57.08;26.48;;;;;;;-5.26;100.00;99364.22;5072618;28;20446;-71
2022/01/09 05:52:43;;;;;;;57.35;26.92;;;;;;;-5.37;100.00;99360.88;5072550;28;20050;-71
2022/01/09 05:55:12;;;;;;;61.95;28.25;;;;;;;-5.15;100.00;99365.84;5071964;28;20064;-71
2022/01/09 05:57:41;;;;;;;60.17;26.95;;;;;;;-5.20;100.00;99361.56;5072542;28;20127;-71
2022/01/09 06:00:09;;;;;;;58.03;26.60;;;;;;;-5.30;100.00;99359.94;5072615;28;20460;-71
2022/01/09 06:02:38;;;;;;;57.83;27.55;;;;;;;-5.16;100.00;99364.13;5072526;28;20131;-71
2022/01/09 06:05:08;;;;;;;58.78;27.40;;;;;;;-5.20;100.00;99361.56;5072688;28;20044;-71
2022/01/09 06:07:39;;;;;;;56.20;27.73;;;;;;;-5.16;100.00;99366.72;5071034;28;20175;-73
2022/01/09 06:10:09;;;;;;;55.03;25.38;;;;;;;-5.07;100.00;99361.41;5072050;28;20044;-70
2022/01/09 06:12:39;;;;;;;56.05;27.33;;;;;;;-5.11;100.00;99367.53;5072374;28;20067;-72
2022/01/09 06:15:09;;;;;;;58.22;25.90;;;;;;;-5.25;100.00;99372.88;5072804;28;20044;-72
2022/01/09 06:17:37;;;;;;;56.63;26.88;;;;;;;-5.32;100.00;99368.59;5072036;28;20048;-71
2022/01/09 06:20:07;;;;;;;58.20;27.48;;;;;;;-5.41;100.00;99369.56;5073492;28;20040;-71
2022/01/09 06:22:35;;;;;;;63.67;27.88;;;;;;;-5.53;100.00;99369.69;5076078;28;20051;-71
2022/01/09 06:25:04;;;;;;;59.55;28.23;;;;;;;-5.58;100.00;99369.75;5076113;28;20424;-70
2022/01/09 06:27:33;;;;;;;58.13;27.88;;;;;;;-5.53;100.00;99359.28;5075724;28;20040;-75
2022/01/09 06:30:04;;;;;;;55.47;26.33;;;;;;;-5.44;100.00;99356.59;5076176;28;20113;-71
2022/01/09 06:32:33;;;;;;;58.03;26.88;;;;;;;-5.29;100.00;99360.78;5075983;28;20040;-75
2022/01/09 06:35:01;;;;;;;57.65;26.60;;;;;;;-5.32;100.00;99359.06;5076317;28;20443;-71
2022/01/09 06:37:29;;;;;;;56.25;26.48;;;;;;;-5.39;100.00;99354.84;5076158;28;20048;-72
2022/01/09 06:39:58;;;;;;;60.08;27.45;;;;;;;-5.25;100.00;99360.72;5075710;28;20072;-72
2022/01/09 06:42:26;;;;;;;59.83;28.27;;;;;;;-5.24;100.00;99364.19;5075765;28;20473;-70
2022/01/09 06:44:54;;;;;;;71.47;27.95;;;;;;;-5.12;100.00;99365.78;5075394;28;20127;-72
2022/01/09 06:47:24;;;;;;;63.40;28.45;;;;;;;-5.30;100.00;99370.34;5075686;28;20040;-72
2022/01/09 06:49:52;;;;;;;61.38;28.38;;;;;;;-5.39;100.00;99362.63;5075585;28;20036;-72
2022/01/09 06:52:20;;;;;;;60.28;27.35;;;;;;;-5.51;100.00;99365.31;5075931;28;20036;-71
2022/01/09 06:54:54;;;;;;;64.65;29.08;;;;;;;-5.57;100.00;99366.25;5075453;28;20410;-72
2022/01/09 06:57:22;;;;;;;57.55;27.15;;;;;;;-5.53;100.00;99361.88;5075903;28;20040;-72
2022/01/09 06:59:50;;;;;;;65.60;29.45;;;;;;;-5.48;100.00;99363.56;5075358;28;20382;-72
2022/01/09 07:02:18;;;;;;;60.67;28.10;;;;;;;-5.35;100.00;99361.72;5075740;28;20102;-70
2022/01/09 07:04:48;;;;;;;64.00;28.80;;;;;;;-5.30;100.00;99359.94;5074844;28;20055;-70
2022/01/09 07:07:16;;;;;;;61.95;28.52;;;;;;;-5.37;100.00;99360.88;5075654;28;20398;-71
2022/01/09 07:09:45;;;;;;;67.57;29.95;;;;;;;-5.42;100.00;99367.84;5073824;28;20474;-71
2022/01/09 07:12:13;;;;;;;64.05;29.45;;;;;;;-5.39;100.00;99364.38;5075471;28;20037;-70
2022/01/09 07:14:41;;;;;;;67.65;29.27;;;;;;;-5.26;100.00;99346.00;5075296;28;20047;-70
2022/01/09 07:17:10;;;;;;;63.38;30.10;;;;;;;-5.18;100.00;99365.00;5075126;28;20123;-70
2022/01/09 07:19:38;;;;;;;61.05;28.60;;;;;;;-5.10;100.00;99361.47;5074988;28;20048;-71
2022/01/09 07:22:08;;;;;;;55.83;29.40;;;;;;;-5.05;100.00;99364.84;5075243;28;20068;-70
2022/01/09 07:24:39;;;;;;;64.50;29.60;;;;;;;-5.13;100.00;99364.06;5074998;28;20123;-72
2022/01/09 07:27:08;;;;;;;60.95;29.25;;;;;;;-5.04;100.00;99363.97;5074952;28;20044;-69
2022/01/09 07:29:36;;;;;;;60.80;28.83;;;;;;;-5.05;100.00;99359.66;5075406;28;20067;-70
2022/01/09 07:32:06;;;;;;;63.65;29.30;;;;;;;-5.12;100.00;99371.00;5073858;28;20049;-69
2022/01/09 07:34:34;;;;;;;63.83;27.48;;;;;;;-5.12;100.00;99369.25;5075183;28;20450;-71
2022/01/09 07:37:03;;;;;;;54.20;26.42;;;;;;;-5.09;100.00;99369.25;5075043;28;20150;-70
2022/01/09 07:39:33;;;;;;;59.72;27.52;;;;;;;-5.02;100.00;99359.59;5074734;28;20123;-69
2022/01/09 07:42:01;;;;;;;57.70;28.23;;;;;;;-4.98;100.00;99362.16;5074447;28;20040;-70
2022/01/09 07:44:30;;;;;;;57.10;27.38;;;;;;;-4.97;100.00;99360.44;5074624;28;20397;-70
2022/01/09 07:46:58;;;;;;;59.58;28.42;;;;;;;-4.87;100.00;99353.38;5074627;28;20040;-70
2022/01/09 07:49:26;;;;;;;58.78;28.10;;;;;;;-4.88;100.00;99355.13;5074752;28;20051;-69
2022/01/09 07:51:54;;;;;;;61.65;27.95;;;;;;;-4.82;100.00;99349.84;5074110;28;20048;-70
2022/01/09 07:54:23;;;;;;;57.25;28.05;;;;;;;-4.81;100.00;99343.75;5075334;28;20048;-71
2022/01/09 07:56:52;;;;;;;60.17;29.08;;;;;;;-4.61;100.00;99339.16;5077089;28;20095;-68
2022/01/09 07:59:20;;;;;;;57.03;28.15;;;;;;;-4.52;100.00;99339.91;5074243;28;20046;-68
2022/01/09 08:01:50;;;;;;;61.58;28.40;;;;;;;-4.51;100.00;99341.63;5074279;28;20052;-68
2022/01/09 08:04:18;;;;;;;59.38;29.50;;;;;;;-4.58;100.00;99345.19;5073059;28;20054;-74
2022/01/09 08:06:47;;;;;;;57.33;27.13;;;;;;;-4.53;100.00;99351.22;5074232;28;20412;-71
2022/01/09 08:09:15;;;;;;;59.70;28.65;;;;;;;-4.57;100.00;99352.13;5074200;28;20474;-72
2022/01/09 08:11:43;;;;;;;60.05;27.73;;;;;;;-4.53;100.00;99353.81;5074037;28;20041;-73
2022/01/09 08:14:13;;;;;;;54.50;28.00;;;;;;;-4.51;100.00;99354.66;5074245;28;20055;-71
2022/01/09 08:16:41;;;;;;;63.67;27.88;;;;;;;-4.51;100.00;99357.25;5074310;28;20474;-72
2022/01/09 08:19:09;;;;;;;56.05;27.83;;;;;;;-4.43;100.00;99355.41;5074110;28;20037;-72
2022/01/09 08:21:38;;;;;;;55.15;27.05;;;;;;;-4.39;100.00;99357.94;5073740;28;20166;-73
2022/01/09 08:24:06;;;;;;;56.90;27.23;;;;;;;-4.37;100.00;99353.56;5073734;28;20064;-72
2022/01/09 08:26:34;;;;;;;54.42;27.20;;;;;;;-4.35;100.00;99358.72;5073721;28;20059;-69
2022/01/09 08:29:02;;;;;;;59.92;27.50;;;;;;;-4.43;100.00;99343.25;5073874;28;20879;-69
2022/01/09 08:31:32;;;;;;;61.17;28.58;;;;;;;-4.36;100.00;99337.06;5073854;28;20051;-69
2022/01/09 08:34:00;;;;;;;59.65;28.17;;;;;;;-4.18;100.00;99340.28;5073519;28;20040;-68
2022/01/09 08:36:36;;;;;;;63.15;29.55;;;;;;;-4.17;100.00;99339.38;5073425;28;20576;-69
2022/01/09 08:39:06;;;;;;;56.25;28.90;;;;;;;-4.10;100.00;99348.81;5073128;28;20040;-69
2022/01/09 08:41:35;;;;;;;57.40;28.17;;;;;;;-4.13;100.00;99349.75;5073634;28;20040;-68
2022/01/09 08:44:04;;;;;;;57.38;28.23;;;;;;;-4.18;100.00;99351.53;5072978;28;20075;-69
2022/01/09 08:46:36;;;;;;;57.38;29.30;;;;;;;-4.19;100.00;99348.97;5073328;28;20478;-71
2022/01/09 08:49:05;;;;;;;59.75;28.83;;;;;;;-3.98;100.00;99345.16;5073094;28;20074;-71
2022/01/09 08:51:33;;;;;;;57.53;28.00;;;;;;;-3.87;100.00;99340.63;5073345;28;20048;-71
2022/01/09 08:54:01;;;;;;;60.00;28.60;;;;;;;-3.82;100.00;99349.25;5072987;28;20054;-71
2022/01/09 08:56:32;;;;;;;56.05;27.98;;;;;;;-3.85;100.00;99349.31;5073213;28;20148;-71
2022/01/09 08:59:01;;;;;;;54.95;27.95;;;;;;;-3.77;100.00;99343.06;5073344;28;20044;-71
2022/01/09 09:01:47;;;;;;;53.78;26.98;;;;;;;-3.74;100.00;99342.19;5073750;28;20083;-72
2022/01/09 09:04:16;;;;;;;52.65;27.30;;;;;;;-3.69;100.00;99348.16;5072901;28;20481;-71
2022/01/09 09:06:45;;;;;;;57.30;27.85;;;;;;;-3.69;100.00;99347.28;5073012;28;20075;-69
2022/01/09 09:09:13;;;;;;;61.17;29.45;;;;;;;-3.68;100.00;99346.41;5073291;28;20044;-69
2022/01/09 09:11:42;;;;;;;54.70;27.65;;;;;;;-3.62;100.00;99357.59;5073327;28;20043;-71
2022/01/09 09:14:11;;;;;;;55.30;27.33;;;;;;;-3.56;100.00;99354.91;5072794;28;20136;-68
2022/01/09 09:16:40;;;;;;;55.85;29.08;;;;;;;-3.32;100.00;99345.75;5072053;28;20551;-71
2022/01/09 09:19:09;;;;;;;55.10;27.67;;;;;;;-3.19;100.00;99356.81;5071758;28;20071;-69
2022/01/09 09:21:40;;;;;;;52.22;27.02;;;;;;;-3.30;100.00;99354.41;5072955;28;20074;-70
2022/01/09 09:24:08;;;;;;;53.72;28.17;;;;;;;-3.25;100.00;99347.38;5072712;28;20049;-68
2022/01/09 09:26:38;;;;;;;53.72;26.58;;;;;;;-3.21;100.00;99349.03;5072993;28;20048;-67
2022/01/09 09:29:07;;;;;;;55.20;27.52;;;;;;;-3.16;100.00;99341.13;5072932;28;20040;-69
2022/01/09 09:31:35;;;;;;;53.28;26.77;;;;;;;-2.92;100.00;99344.97;5072812;28;20045;-68
2022/01/09 09:34:05;;;;;;;49.40;26.17;;;;;;;-2.77;100.00;99346.44;5072749;28;20482;-69
2022/01/09 09:36:35;;;;;;;53.45;27.23;;;;;;;-2.76;100.00;99342.94;5073284;28;20075;-69
2022/01/09 09:39:05;;;;;;;50.40;26.08;;;;;;;-2.68;100.00;99341.03;5072522;28;20048;-69
2022/01/09 09:41:33;;;;;;;57.55;27.17;;;;;;;-2.71;100.00;99348.91;5073159;28;20462;-69
2022/01/09 09:44:02;;;;;;;55.65;27.52;;;;;;;-2.61;100.00;99345.19;5072475;28;20044;-69
2022/01/09 09:46:32;;;;;;;54.63;27.40;;;;;;;-2.65;100.00;99344.41;5072131;28;20083;-69
2022/01/09 09:49:00;;;;;;;52.42;26.73;;;;;;;-2.34;100.00;99344.59;5072802;28;20045;-69
2022/01/09 09:51:30;;;;;;;54.55;26.05;;;;;;;-2.25;100.00;99348.78;5072797;28;20048;-69
2022/01/09 09:54:00;;;;;;;48.72;26.35;;;;;;;-2.02;100.00;99345.66;5072324;28;20098;-69
2022/01/09 09:56:28;;;;;;;55.33;27.70;;;;;;;-1.90;100.00;99344.47;5075521;28;20052;-69
2022/01/09 09:58:59;;;;;;;54.80;25.63;;;;;;;-1.84;100.00;99350.41;5076680;28;20051;-69
2022/01/09 10:01:30;;;;;;;49.28;25.40;;;;;;;-1.78;100.00;99354.63;5077201;28;20052;-68
2022/01/09 10:04:01;;;;;;;54.83;26.58;;;;;;;-1.59;100.00;99349.81;5076501;28;20032;-68
2022/01/09 10:06:37;;;;;;;55.28;27.05;;;;;;;-1.50;100.00;99352.19;5076947;28;20047;-70
2022/01/09 10:09:12;;;;;;;52.67;26.60;;;;;;;-1.54;100.00;99353.19;5076717;28;20049;-68
2022/01/09 10:11:46;;;;;;;53.63;26.73;;;;;;;-1.55;100.00;99356.66;5076618;28;20041;-68
2022/01/09 10:14:17;;;;;;;53.92;28.23;;;;;;;-1.47;100.00;99362.56;5076280;28;20048;-69
2022/01/09 10:17:11;;;;;;;56.28;28.20;;;;;;;-1.38;100.00;99359.72;5076832;28;20048;-69
2022/01/09 10:19:45;;;;;;;58.30;27.92;;;;;;;-1.38;100.00;99358.84;5076731;28;20477;-68
2022/01/09 10:22:28;;;;;;;;;;;;;;;-1.43;100.00;99361.59;5076794;28;20049;-69
2022/01/09 10:25:16;;;;;;;55.03;26.17;;;;;;;-1.38;100.00;99364.94;5074832;28;19926;-70
2022/01/09 10:27:45;;;;;;;54.30;28.10;;;;;;;-1.40;100.00;99358.91;5076524;28;20053;-69
2022/01/09 10:30:14;;;;;;;59.92;27.50;;;;;;;-1.27;100.00;99357.66;5075691;28;20493;-69
2022/01/09 10:32:43;;;;;;;47.47;24.77;;;;;;;-1.19;100.00;99363.56;5076176;28;20398;-69
2022/01/09 10:35:14;;;;;;;48.70;24.58;;;;;;;-1.16;100.00;99360.88;5075932;28;20090;-70
2022/01/09 10:37:45;;;;;;;44.47;23.80;;;;;;;-1.19;100.00;99354.84;5076176;28;20040;-69
2022/01/09 10:40:21;;;;;;;41.55;23.75;;;;;;;-1.29;100.00;99354.25;5076194;28;20102;-69
2022/01/09 10:43:03;;;;;;;44.92;23.52;;;;;;;-1.23;100.00;99348.84;5076242;28;20044;-69
2022/01/09 10:45:31;;;;;;;48.30;24.05;;;;;;;-1.25;100.00;99341.97;5076309;28;20052;-69
2022/01/09 10:48:05;;;;;;;50.25;24.45;;;;;;;-1.13;100.00;99328.53;5075858;28;20059;-70
2022/01/09 10:50:37;;;;;;;44.38;22.98;;;;;;;-1.18;100.00;99323.41;5076060;28;20037;-69
2022/01/09 10:53:23;;;;;;;42.83;22.33;;;;;;;-1.14;100.00;99324.19;5075954;28;20524;-70
2022/01/09 10:56:06;;;;;;;42.15;22.60;;;;;;;-1.18;100.00;99317.31;5075971;28;20541;-70
2022/01/09 10:58:36;;;;;;;48.92;25.25;;;;;;;-1.10;100.00;99317.97;5075645;28;20198;-70
2022/01/09 11:01:20;;;;;;;41.72;22.23;;;;;;;-1.12;100.00;99308.44;5075552;28;20106;-70
2022/01/09 11:03:51;;;;;;;41.50;21.88;;;;;;;-1.01;100.00;99306.38;5075652;28;20048;-70
2022/01/09 11:06:20;;;;;;;40.85;22.08;;;;;;;-1.04;100.00;99311.72;5075274;28;20048;-69
2022/01/09 11:08:48;;;;;;;40.78;22.23;;;;;;;-0.94;100.00;99307.94;5075769;28;20405;-69
2022/01/09 11:11:27;;;;;;;42.17;23.65;;;;;;;-0.91;100.00;99308.69;5075468;28;20476;-69
2022/01/09 11:13:57;;;;;;;43.15;22.45;;;;;;;-0.89;100.00;99306.03;5075466;28;20047;-69
2022/01/09 11:16:37;;;;;;;44.33;22.85;;;;;;;-0.85;100.00;99297.22;5075352;28;20049;-70
2022/01/09 11:19:11;;;;;;;43.15;22.67;;;;;;;-0.68;100.00;99300.16;5075402;28;20040;-70
2022/01/09 11:21:44;;;;;;;39.80;21.75;;;;;;;-0.56;100.00;99298.09;5075664;28;20140;-68